Gervais, Oregon
Current Conditions -  °F | °C
As of 6:45 AM on Tuesday 21 Oct 2014 (Local Time) from KUAO Reporting Station
Overcast Overcast  
Wind Chill: 52°   Ceiling: 4200
Heat Index: 52°   Visibility: 10mi
Dew Point: 50°   Wind: 12mph
Humidity: 93%   Direction: 180°S
Pressure: 29.97"   Gusts: NA
Location:  45.11°N, 122.9°W
Report Text: KUAO 211345Z AUTO 18010KT 10SM FEW012 SCT026 OVC042 11/10 A2997 RMK AO2 RAB06E35 P0001 T01110100
Loading
Personal Weather Stations






























Interactive Weather Map New forecast layout! Learn more

10-Day Weather Forecast

Advertisements
Track Severe Weather on mobile